createdAt,value
2022-12-15T00:00:02.560Z,-1.41
2022-12-15T00:02:49.746Z,-1.40
2022-12-15T00:05:35.129Z,-1.39
2022-12-15T00:08:30.710Z,-1.46
2022-12-15T00:11:16.351Z,-1.44
2022-12-15T00:14:02.363Z,-1.44
2022-12-15T00:16:48.131Z,-1.48
2022-12-15T00:19:35.680Z,-1.48
2022-12-15T00:22:20.802Z,-1.46
2022-12-15T00:25:06.458Z,-1.43
2022-12-15T00:27:51.579Z,-1.47
2022-12-15T00:30:37.218Z,-1.46
2022-12-15T00:33:27.782Z,-1.45
2022-12-15T00:36:17.851Z,-1.48
2022-12-15T00:38:46.276Z,-1.53
2022-12-15T00:41:15.840Z,-1.49
2022-12-15T00:43:45.112Z,-1.51
2022-12-15T00:46:30.660Z,-1.51
2022-12-15T00:48:59.559Z,-1.52
2022-12-15T00:51:46.534Z,-1.51
2022-12-15T00:54:31.915Z,-1.56
2022-12-15T00:57:17.228Z,-1.59
2022-12-15T01:00:03.013Z,-1.56
2022-12-15T01:02:48.455Z,-1.53
2022-12-15T01:05:34.431Z,-1.48
2022-12-15T01:08:21.322Z,-1.47
2022-12-15T01:11:07.106Z,-1.50
2022-12-15T01:13:52.428Z,-1.47
2022-12-15T01:16:38.142Z,-1.44
2022-12-15T01:19:23.675Z,-1.42
2022-12-15T01:21:52.184Z,-1.40
2022-12-15T01:24:21.507Z,-1.40
2022-12-15T01:26:49.482Z,-1.44
2022-12-15T01:29:17.822Z,-1.47
2022-12-15T01:31:49.868Z,-1.50
2022-12-15T01:34:20.284Z,-1.54
2022-12-15T01:36:48.421Z,-1.61
2022-12-15T01:39:16.929Z,-1.58
2022-12-15T01:41:45.459Z,-1.64
2022-12-15T01:44:21.216Z,-1.61
2022-12-15T01:46:50.583Z,-1.58
2022-12-15T01:49:24.725Z,-1.54
2022-12-15T01:51:57.220Z,-1.53
2022-12-15T01:54:29.464Z,-1.52
2022-12-15T01:57:05.757Z,-1.49
2022-12-15T01:59:36.914Z,-1.49
2022-12-15T02:02:05.224Z,-1.58
2022-12-15T02:04:35.158Z,-1.63
2022-12-15T02:07:03.162Z,-1.59
2022-12-15T02:09:31.450Z,-1.56
2022-12-15T02:12:07.292Z,-1.60
2022-12-15T02:14:52.599Z,-1.59
2022-12-15T02:17:31.791Z,-1.62
2022-12-15T02:20:24.980Z,-1.60
2022-12-15T02:23:15.870Z,-1.58
2022-12-15T02:26:11.412Z,-1.54
2022-12-15T02:28:53.281Z,-1.49
2022-12-15T02:31:49.792Z,-1.48
2022-12-15T02:34:27.759Z,-1.46
2022-12-15T02:36:59.583Z,-1.41
2022-12-15T02:39:27.999Z,-1.46
2022-12-15T02:41:56.070Z,-1.50
2022-12-15T02:44:28.265Z,-1.55
2022-12-15T02:47:21.075Z,-1.58
2022-12-15T02:50:06.368Z,-1.57
2022-12-15T02:52:46.075Z,-1.53
2022-12-15T02:55:21.782Z,-1.49
2022-12-15T02:58:00.462Z,-1.48
2022-12-15T03:00:30.083Z,-1.46
2022-12-15T03:03:00.090Z,-1.45
2022-12-15T03:05:28.262Z,-1.44
2022-12-15T03:07:56.109Z,-1.41
2022-12-15T03:10:26.832Z,-1.35
2022-12-15T03:12:55.986Z,-1.35
2022-12-15T03:15:23.862Z,-1.32
2022-12-15T03:17:52.226Z,-1.31
2022-12-15T03:20:21.475Z,-1.32
2022-12-15T03:22:49.794Z,-1.32
2022-12-15T03:25:17.729Z,-1.29
2022-12-15T03:27:47.479Z,-1.32
2022-12-15T03:30:15.717Z,-1.33
2022-12-15T03:32:43.660Z,-1.32
2022-12-15T03:35:13.001Z,-1.31
2022-12-15T03:37:42.971Z,-1.32
2022-12-15T03:40:14.261Z,-1.32
2022-12-15T03:42:50.649Z,-1.35
2022-12-15T03:45:20.419Z,-1.34
2022-12-15T03:47:49.099Z,-1.35
2022-12-15T03:50:19.697Z,-1.30
2022-12-15T03:52:52.043Z,-1.33
2022-12-15T03:55:20.513Z,-1.33
2022-12-15T03:57:48.996Z,-1.32
2022-12-15T04:00:19.053Z,-1.28
2022-12-15T04:02:47.469Z,-1.25
2022-12-15T04:05:20.905Z,-1.27
2022-12-15T04:07:50.245Z,-1.26
2022-12-15T04:10:18.527Z,-1.33
2022-12-15T04:12:46.947Z,-1.32
2022-12-15T04:15:15.246Z,-1.31
2022-12-15T04:17:43.401Z,-1.32
2022-12-15T04:20:11.650Z,-1.29
2022-12-15T04:22:40.991Z,-1.24
2022-12-15T04:25:31.040Z,-1.23
2022-12-15T04:28:18.004Z,-1.29
2022-12-15T04:31:08.591Z,-1.27
2022-12-15T04:33:55.304Z,-1.31
2022-12-15T04:36:42.165Z,-1.41
2022-12-15T04:39:27.412Z,-1.44
2022-12-15T04:42:17.387Z,-1.38
2022-12-15T04:45:02.665Z,-1.38
2022-12-15T04:47:48.440Z,-1.44
2022-12-15T04:50:33.836Z,-1.43
2022-12-15T04:53:27.429Z,-1.43
2022-12-15T04:56:18.266Z,-1.42
2022-12-15T04:59:07.274Z,-1.37
2022-12-15T05:01:53.152Z,-1.36
2022-12-15T05:04:39.042Z,-1.33
2022-12-15T05:07:24.614Z,-1.33
2022-12-15T05:10:14.929Z,-1.33
2022-12-15T05:13:00.786Z,-1.32
2022-12-15T05:15:48.047Z,-1.33
2022-12-15T05:18:33.343Z,-1.31
2022-12-15T05:21:18.466Z,-1.32
2022-12-15T05:24:03.611Z,-1.33
2022-12-15T05:26:53.070Z,-1.32
2022-12-15T05:29:39.024Z,-1.32
2022-12-15T05:32:09.097Z,-1.32
2022-12-15T05:34:37.925Z,-1.11
2022-12-15T05:37:07.948Z,-1.08
2022-12-15T05:39:36.820Z,-1.08
2022-12-15T05:42:05.007Z,-1.06
2022-12-15T05:44:32.966Z,-1.00
2022-12-15T05:47:00.887Z,-1.01
2022-12-15T05:49:30.219Z,-1.04
2022-12-15T05:51:58.609Z,-1.06
2022-12-15T05:54:26.879Z,-1.09
2022-12-15T05:56:54.817Z,-1.12
2022-12-15T05:59:23.150Z,-1.15
2022-12-15T06:01:51.186Z,-1.14
2022-12-15T06:04:19.711Z,-1.09
2022-12-15T06:06:49.548Z,-1.11
2022-12-15T06:09:17.642Z,-1.19
2022-12-15T06:11:45.780Z,-1.18
2022-12-15T06:14:14.337Z,-1.19
2022-12-15T06:16:51.078Z,-1.17
2022-12-15T06:19:19.464Z,-1.19
2022-12-15T06:21:48.779Z,-1.18
2022-12-15T06:24:16.969Z,-1.16
2022-12-15T06:26:45.809Z,-1.18
2022-12-15T06:29:14.459Z,-1.20
2022-12-15T06:31:43.788Z,-1.21
2022-12-15T06:34:14.269Z,-1.24
2022-12-15T06:36:42.417Z,-1.23
2022-12-15T06:39:15.698Z,-1.18
2022-12-15T06:41:44.498Z,-1.20
2022-12-15T06:44:17.070Z,-1.17
2022-12-15T06:46:46.210Z,-1.17
2022-12-15T06:49:14.934Z,-1.30
2022-12-15T06:51:44.454Z,-1.37
2022-12-15T06:54:14.251Z,-1.44
2022-12-15T06:56:43.550Z,-1.44
2022-12-15T06:59:13.301Z,-1.42
2022-12-15T07:01:41.839Z,-1.38
2022-12-15T07:04:11.422Z,-1.36
2022-12-15T07:06:40.869Z,-1.41
2022-12-15T07:09:12.717Z,-1.48
2022-12-15T07:11:42.746Z,-1.55
2022-12-15T07:14:11.207Z,-1.51
2022-12-15T07:16:39.772Z,-1.47
2022-12-15T07:19:07.630Z,-1.45
2022-12-15T07:21:35.718Z,-1.41
2022-12-15T07:24:04.343Z,-1.33
2022-12-15T07:26:32.591Z,-1.27
2022-12-15T07:29:02.065Z,-1.26
2022-12-15T07:31:31.894Z,-1.25
2022-12-15T07:34:00.506Z,-1.18
2022-12-15T07:36:28.748Z,-1.14
2022-12-15T07:39:09.526Z,-1.09
2022-12-15T07:41:40.544Z,-1.12
2022-12-15T07:44:10.403Z,-1.12
2022-12-15T07:46:38.553Z,-1.08
2022-12-15T07:49:06.807Z,-1.04
2022-12-15T07:51:34.915Z,-0.97
2022-12-15T07:54:02.849Z,-0.97
2022-12-15T07:56:34.518Z,-0.92
2022-12-15T07:59:10.809Z,-0.88
2022-12-15T08:01:40.424Z,-0.89
2022-12-15T08:04:09.056Z,-0.83
2022-12-15T08:06:37.232Z,-0.77
2022-12-15T08:09:05.117Z,-0.77
2022-12-15T08:11:35.774Z,-0.74
2022-12-15T08:14:07.001Z,-0.72
2022-12-15T08:16:40.749Z,-0.70
2022-12-15T08:19:12.770Z,-0.69
2022-12-15T08:21:41.549Z,-0.67
2022-12-15T08:24:09.921Z,-0.66
2022-12-15T08:26:40.730Z,-0.66
2022-12-15T08:29:49.395Z,-0.70
2022-12-15T08:32:00.308Z,-0.60
2022-12-15T08:34:29.146Z,-0.56
2022-12-15T08:36:57.256Z,-0.55
2022-12-15T08:39:25.377Z,-0.50
2022-12-15T08:41:53.525Z,-0.39
2022-12-15T08:44:30.007Z,-0.42
2022-12-15T08:47:00.304Z,-0.37
2022-12-15T08:49:28.517Z,-0.24
2022-12-15T08:51:56.752Z,-0.29
2022-12-15T08:54:25.368Z,-0.26
2022-12-15T08:56:53.741Z,-0.18
2022-12-15T08:59:22.358Z,-0.04
2022-12-15T09:01:50.773Z,0.00
2022-12-15T09:04:20.496Z,0.01
2022-12-15T09:06:50.892Z,0.09
2022-12-15T09:09:19.462Z,0.13
2022-12-15T09:11:47.515Z,0.16
2022-12-15T09:14:15.969Z,0.14
2022-12-15T09:16:44.074Z,0.08
2022-12-15T09:19:12.096Z,0.13
2022-12-15T09:21:45.681Z,0.11
2022-12-15T09:24:24.674Z,0.15
2022-12-15T09:26:57.975Z,0.16
2022-12-15T09:29:25.991Z,0.25
2022-12-15T09:31:54.043Z,0.27
2022-12-15T09:34:22.311Z,0.24
2022-12-15T09:36:51.821Z,0.34
2022-12-15T09:39:20.256Z,0.40
2022-12-15T09:41:55.911Z,0.45
2022-12-15T09:44:26.847Z,0.49
2022-12-15T09:47:07.137Z,0.44
2022-12-15T09:49:49.708Z,0.47
2022-12-15T09:52:22.771Z,0.53
2022-12-15T09:54:51.046Z,0.59
2022-12-15T09:57:33.530Z,0.61
2022-12-15T10:00:13.241Z,0.69
2022-12-15T10:03:07.233Z,0.68
2022-12-15T10:06:06.823Z,0.67
2022-12-15T10:08:36.853Z,0.74
2022-12-15T10:11:07.681Z,0.74
2022-12-15T10:13:44.175Z,0.81
2022-12-15T10:16:21.854Z,0.83
2022-12-15T10:19:02.219Z,0.83
2022-12-15T10:21:32.483Z,0.80
2022-12-15T10:24:14.465Z,0.72
2022-12-15T10:26:44.205Z,0.63
2022-12-15T10:29:24.493Z,0.58
2022-12-15T10:31:55.491Z,0.57
2022-12-15T10:34:29.917Z,0.55
2022-12-15T10:36:58.988Z,0.49
2022-12-15T10:39:41.262Z,0.50
2022-12-15T10:42:18.199Z,0.52
2022-12-15T10:44:50.641Z,0.53
2022-12-15T10:47:22.880Z,0.60
2022-12-15T10:49:52.029Z,0.52
2022-12-15T10:52:32.767Z,0.54
2022-12-15T10:55:02.425Z,0.58
2022-12-15T10:57:32.096Z,0.59
2022-12-15T11:00:29.130Z,0.73
2022-12-15T11:02:58.576Z,0.86
2022-12-15T11:05:27.731Z,0.92
2022-12-15T11:07:58.073Z,0.85
2022-12-15T11:10:50.207Z,0.86
2022-12-15T11:13:19.107Z,0.92
2022-12-15T11:15:50.882Z,0.92
2022-12-15T11:18:32.397Z,0.92
2022-12-15T11:21:05.872Z,0.98
2022-12-15T11:23:48.914Z,1.05
2022-12-15T11:26:31.281Z,1.06
2022-12-15T11:29:03.626Z,1.09
2022-12-15T11:31:36.288Z,1.10
2022-12-15T11:34:05.413Z,0.95
2022-12-15T11:36:55.452Z,0.96
2022-12-15T11:39:36.822Z,1.03
2022-12-15T11:42:15.881Z,0.92
2022-12-15T11:44:53.226Z,0.93
2022-12-15T11:47:32.347Z,0.89
2022-12-15T11:50:16.473Z,0.89
2022-12-15T11:53:04.678Z,0.98
2022-12-15T11:55:42.206Z,1.03
2022-12-15T12:04:56.978Z,1.06
2022-12-15T12:07:42.632Z,1.01
2022-12-15T12:10:33.101Z,1.05
2022-12-15T12:13:12.871Z,1.06
2022-12-15T12:15:57.548Z,1.20
2022-12-15T12:18:41.296Z,1.11
2022-12-15T12:21:15.567Z,1.20
2022-12-15T12:23:51.960Z,1.19
2022-12-15T12:26:29.624Z,1.14
2022-12-15T12:29:13.048Z,1.22
2022-12-15T12:31:52.101Z,1.16
2022-12-15T12:34:29.072Z,1.22
2022-12-15T12:37:16.920Z,1.27
2022-12-15T12:39:47.418Z,1.34
2022-12-15T12:42:22.837Z,1.41
2022-12-15T12:44:52.007Z,1.49
2022-12-15T12:47:25.769Z,1.51
2022-12-15T12:50:01.059Z,1.58
2022-12-15T12:52:34.624Z,1.60
2022-12-15T12:55:14.523Z,1.61
2022-12-15T12:57:44.543Z,1.69
2022-12-15T13:00:21.988Z,1.63
2022-12-15T13:03:17.752Z,1.65
2022-12-15T13:05:50.404Z,1.68
2022-12-15T13:08:55.986Z,1.74
2022-12-15T13:12:20.621Z,1.64
2022-12-15T13:14:51.682Z,1.79
2022-12-15T13:17:53.042Z,1.69
2022-12-15T13:20:28.378Z,1.79
2022-12-15T13:23:25.128Z,1.72
2022-12-15T13:26:13.365Z,1.63
2022-12-15T13:28:47.083Z,1.58
2022-12-15T13:31:49.949Z,1.55
2022-12-15T13:34:30.057Z,1.55
2022-12-15T13:37:03.622Z,1.49
2022-12-15T13:40:02.494Z,1.50
2022-12-15T13:42:38.731Z,1.47
2022-12-15T13:45:41.089Z,1.48
2022-12-15T13:48:21.097Z,1.39
2022-12-15T13:50:56.515Z,1.32
2022-12-15T13:53:28.092Z,1.29
2022-12-15T13:56:08.099Z,1.29
2022-12-15T13:58:42.737Z,1.27
2022-12-15T14:04:15.682Z,1.23
2022-12-15T14:06:50.816Z,1.20
2022-12-15T14:09:26.707Z,1.23
2022-12-15T14:11:54.983Z,1.23
2022-12-15T14:14:29.434Z,1.22
2022-12-15T14:17:01.214Z,1.31
2022-12-15T14:19:39.363Z,1.17
2022-12-15T14:22:27.645Z,1.15
2022-12-15T14:25:04.958Z,1.14
2022-12-15T14:27:34.952Z,1.14
2022-12-15T14:30:24.131Z,1.07
2022-12-15T14:32:58.295Z,1.11
2022-12-15T14:35:31.301Z,1.13
2022-12-15T14:38:03.771Z,1.10
2022-12-15T14:40:37.635Z,1.04
2022-12-15T14:43:07.930Z,0.99
2022-12-15T14:45:36.533Z,1.04
2022-12-15T14:48:40.101Z,0.91
2022-12-15T14:51:01.713Z,0.98
2022-12-15T14:53:34.868Z,0.89
2022-12-15T14:56:30.392Z,0.86
2022-12-15T14:59:04.896Z,0.80
2022-12-15T15:01:37.559Z,0.86
2022-12-15T15:03:05.768Z,1.23
2022-12-15T15:03:06.971Z,1.08
2022-12-15T15:03:07.046Z,1.12
2022-12-15T15:04:07.589Z,0.85
2022-12-15T15:06:41.199Z,0.85
2022-12-15T15:09:26.618Z,0.74
2022-12-15T15:11:58.287Z,0.70
2022-12-15T15:14:30.295Z,0.70
2022-12-15T15:17:09.628Z,0.75
2022-12-15T15:19:41.009Z,0.67
2022-12-15T15:22:27.387Z,0.70
2022-12-15T15:24:57.244Z,0.70
2022-12-15T15:27:33.912Z,0.63
2022-12-15T15:30:16.859Z,0.63
2022-12-15T15:32:57.084Z,0.62
2022-12-15T15:35:31.495Z,0.74
2022-12-15T15:38:05.404Z,0.65
2022-12-15T15:40:33.437Z,0.62
2022-12-15T15:43:03.798Z,0.63
2022-12-15T15:45:32.032Z,0.57
2022-12-15T15:48:00.659Z,0.53
2022-12-15T15:50:32.753Z,0.57
2022-12-15T15:53:00.928Z,0.56
2022-12-15T15:55:39.710Z,0.53
2022-12-15T15:58:15.973Z,0.52
2022-12-15T16:09:50.379Z,0.47
2022-12-15T16:12:28.030Z,0.50
2022-12-15T16:14:59.479Z,0.46
2022-12-15T16:17:28.195Z,0.52
2022-12-15T16:19:56.508Z,0.50
2022-12-15T16:22:24.968Z,0.47
2022-12-15T16:24:53.616Z,0.56
2022-12-15T16:27:23.513Z,0.70
2022-12-15T16:29:54.230Z,0.54
2022-12-15T16:32:23.808Z,0.57
2022-12-15T16:34:53.610Z,0.49
2022-12-15T16:37:39.658Z,0.44
2022-12-15T16:40:25.310Z,0.59
2022-12-15T16:42:56.777Z,0.54
2022-12-15T16:45:27.166Z,0.52
2022-12-15T16:47:57.838Z,0.49
2022-12-15T16:50:30.760Z,0.49
2022-12-15T16:53:00.271Z,0.56
2022-12-15T16:55:31.728Z,0.59
2022-12-15T16:58:05.354Z,0.53
2022-12-15T17:00:37.435Z,0.47
2022-12-15T17:03:07.901Z,0.48
2022-12-15T17:05:37.619Z,0.48
2022-12-15T17:08:07.481Z,0.44
2022-12-15T17:10:36.235Z,0.45
2022-12-15T17:13:07.396Z,0.48
2022-12-15T17:15:36.674Z,0.53
2022-12-15T17:18:07.652Z,0.60
2022-12-15T17:20:35.531Z,0.55
2022-12-15T17:23:07.431Z,0.50
2022-12-15T17:26:18.144Z,0.50
2022-12-15T17:28:32.940Z,0.50
2022-12-15T17:31:01.024Z,0.48
2022-12-15T17:33:32.940Z,0.55
2022-12-15T17:36:02.934Z,0.48
2022-12-15T17:38:31.368Z,0.48
2022-12-15T17:40:59.445Z,0.48
2022-12-15T17:43:35.187Z,0.49
2022-12-15T17:46:04.159Z,0.48
2022-12-15T17:48:33.478Z,0.47
2022-12-15T17:51:01.462Z,0.45
2022-12-15T17:53:30.874Z,0.43
2022-12-15T17:55:58.945Z,0.45
2022-12-15T17:58:28.250Z,0.46
2022-12-15T18:00:58.055Z,0.43
2022-12-15T18:03:26.040Z,0.44
2022-12-15T18:05:55.326Z,0.44
2022-12-15T18:08:26.401Z,0.44
2022-12-15T18:10:57.387Z,0.48
2022-12-15T18:13:30.307Z,0.39
2022-12-15T18:16:02.950Z,0.40
2022-12-15T18:18:39.628Z,0.39
2022-12-15T18:21:22.503Z,0.40
2022-12-15T18:23:52.517Z,0.41
2022-12-15T18:26:33.426Z,0.44
2022-12-15T18:29:01.859Z,0.41
2022-12-15T18:31:32.934Z,0.40
2022-12-15T18:34:05.004Z,0.41
2022-12-15T18:39:29.213Z,0.34
2022-12-15T18:42:10.349Z,0.38
2022-12-15T18:44:38.201Z,0.36
2022-12-15T18:47:20.505Z,0.37
2022-12-15T18:49:48.737Z,0.35
2022-12-15T18:52:20.065Z,0.36
2022-12-15T18:54:48.498Z,0.37
2022-12-15T18:57:30.635Z,0.38
2022-12-15T19:00:00.169Z,0.35
2022-12-15T19:02:28.355Z,0.38
2022-12-15T19:04:58.274Z,0.38
2022-12-15T19:07:28.911Z,0.35
2022-12-15T19:09:56.950Z,0.32
2022-12-15T19:12:28.094Z,0.36
2022-12-15T19:14:55.909Z,0.26
2022-12-15T19:17:42.972Z,0.27
2022-12-15T19:20:34.818Z,0.28
2022-12-15T19:23:04.645Z,0.28
2022-12-15T19:25:33.590Z,0.27
2022-12-15T19:28:02.255Z,0.22
2022-12-15T19:30:40.212Z,0.30
2022-12-15T19:33:10.849Z,0.27
2022-12-15T19:35:42.352Z,0.25
2022-12-15T19:38:21.326Z,0.18
2022-12-15T19:40:53.227Z,0.16
2022-12-15T19:43:22.720Z,0.11
2022-12-15T19:45:51.912Z,0.15
2022-12-15T19:48:23.638Z,0.16
2022-12-15T19:50:55.719Z,0.12
2022-12-15T19:53:28.582Z,0.16
2022-12-15T19:56:01.823Z,0.14
2022-12-15T19:58:31.785Z,0.14
2022-12-15T20:01:03.433Z,0.16
2022-12-15T20:03:32.265Z,0.20
2022-12-15T20:06:03.108Z,0.17
2022-12-15T20:08:36.817Z,0.16
2022-12-15T20:11:05.151Z,0.21
2022-12-15T20:13:33.381Z,0.09
2022-12-15T20:16:02.055Z,0.16
2022-12-15T20:18:30.309Z,0.14
2022-12-15T20:20:59.412Z,0.15
2022-12-15T20:23:32.332Z,0.16
2022-12-15T20:26:02.246Z,0.16
2022-12-15T20:28:34.055Z,0.12
2022-12-15T20:31:03.213Z,0.05
2022-12-15T20:33:31.619Z,0.06
2022-12-15T20:36:00.259Z,0.02
2022-12-15T20:38:31.502Z,0.03
2022-12-15T20:41:03.815Z,0.02
2022-12-15T20:43:36.127Z,0.01
2022-12-15T20:46:19.104Z,0.04
2022-12-15T20:48:54.395Z,0.00
2022-12-15T20:51:27.543Z,-0.05
2022-12-15T20:53:57.859Z,-0.04
2022-12-15T20:56:28.066Z,-0.04
2022-12-15T20:58:58.060Z,-0.03
2022-12-15T21:01:28.297Z,-0.08
2022-12-15T21:04:25.906Z,-0.11
2022-12-15T21:06:56.793Z,-0.08
2022-12-15T21:09:25.711Z,-0.07
2022-12-15T21:11:55.785Z,-0.05
2022-12-15T21:14:26.576Z,-0.07
2022-12-15T21:16:54.499Z,-0.04
2022-12-15T21:19:23.268Z,-0.06
2022-12-15T21:21:55.969Z,-0.06
2022-12-15T21:24:26.306Z,-0.09
2022-12-15T21:27:01.515Z,-0.10
2022-12-15T21:29:29.866Z,-0.19
2022-12-15T21:31:57.659Z,-0.20
2022-12-15T21:34:26.708Z,-0.17
2022-12-15T21:36:55.644Z,-0.18
2022-12-15T21:39:25.997Z,-0.15
2022-12-15T21:41:57.504Z,-0.17
2022-12-15T21:44:25.519Z,-0.14
2022-12-15T21:46:55.615Z,-0.17
2022-12-15T21:49:22.487Z,-0.17
2022-12-15T21:51:53.550Z,-0.11
2022-12-15T21:54:30.770Z,-0.16
2022-12-15T21:57:01.307Z,-0.17
2022-12-15T21:59:30.864Z,-0.14
2022-12-15T22:02:00.455Z,-0.11
2022-12-15T22:04:33.996Z,-0.11
2022-12-15T22:07:02.209Z,-0.18
2022-12-15T22:09:30.275Z,-0.16
2022-12-15T22:11:58.327Z,-0.19
2022-12-15T22:14:29.827Z,-0.50
2022-12-15T22:16:58.722Z,-0.30
2022-12-15T22:19:26.534Z,-0.42
2022-12-15T22:21:54.467Z,-0.41
2022-12-15T22:24:22.864Z,-0.45
2022-12-15T22:26:51.190Z,-0.41
2022-12-15T22:29:20.599Z,-0.44
2022-12-15T22:31:50.794Z,-0.49
2022-12-15T22:34:21.925Z,-0.46
2022-12-15T22:36:50.898Z,-0.48
2022-12-15T22:39:20.181Z,-0.52
2022-12-15T22:41:50.435Z,-0.66
2022-12-15T22:44:22.771Z,-0.70
2022-12-15T22:46:54.224Z,-0.70
2022-12-15T22:49:25.287Z,-0.76
2022-12-15T22:51:53.068Z,-0.70
2022-12-15T22:54:25.052Z,-0.73
2022-12-15T22:56:58.359Z,-0.73
2022-12-15T22:59:32.079Z,-0.75
2022-12-15T23:02:03.712Z,-0.77
2022-12-15T23:04:33.530Z,-0.73
2022-12-15T23:07:04.758Z,-0.72
2022-12-15T23:09:32.746Z,-0.71
2022-12-15T23:11:59.870Z,-0.70
2022-12-15T23:14:41.580Z,-0.63
2022-12-15T23:17:12.309Z,-0.63
2022-12-15T23:19:45.011Z,-0.69
2022-12-15T23:22:12.951Z,-0.67
2022-12-15T23:24:40.795Z,-0.63
2022-12-15T23:27:11.326Z,-0.63
2022-12-15T23:29:39.601Z,-0.66
2022-12-15T23:32:07.587Z,-0.67
2022-12-15T23:34:37.571Z,-0.75
2022-12-15T23:37:05.857Z,-0.75
2022-12-15T23:39:33.680Z,-0.73
2022-12-15T23:42:01.724Z,-0.68
2022-12-15T23:44:30.602Z,-0.73
2022-12-15T23:46:58.574Z,-0.70
2022-12-15T23:49:26.506Z,-0.69
2022-12-15T23:51:56.148Z,-0.68
2022-12-15T23:54:24.155Z,-0.63
2022-12-15T23:56:52.156Z,-0.66
2022-12-15T23:59:22.989Z,-0.67
